Brainard, Iowa
Current Conditions -  °F | °C
As of 12:15 PM on Monday 24 Nov 2014 (Local Time) from KDEH Reporting Station
Overcast Overcast  
Wind Chill: 10°   Ceiling: 1200
Heat Index: 23°   Visibility: 9mi
Dew Point: 19°   Wind: 16mph
Humidity: 86%   Direction: 290°WNW
Pressure: 29.4"   Gusts: 26mph
Location:  42.9498°N, 91.6662°W
Report Text: KDEH 241815Z AUTO 29014G23KT 9SM OVC012 M05/M07 A2940 RMK AO2
Loading
Personal Weather Stations






























Interactive Weather Map New forecast layout! Learn more

10-Day Weather Forecast

Advertisements
Track Severe Weather on mobile